Авиационная погода в Миккели

Регион: 
Погода METAR: 
EFMI 282220Z AUTO 09007KT CAVOK 18/09 Q1023
Время наблюдения
2022-06-28T22:20:00Z
Температура C
18.0
Точка росы
9.0
Направление ветра
90
Скорость ветра (узлы)
7
Метео видимость
6.21
Облачность
CAVOK
Нижняя граница облачности (футы)
Явления погоды
Условия полета
VFR